Delavan, WI

12:50 PM CDT del 01 Aprile 2015 (GMT -0500)
Burlington | | Change Station
CLOSE
Current Station
Aeroporto
Location: Burlington,
Altitudine: 778 ft
Stazioni meteo nelle vicinanze

Alt. 778 ft 42.69 °N, 88.31 °W | Updated 15 minutes ago

Sereno
Sereno
65 °F
Sembra 65 °F
N
12
Vento Variabile Vento da Sud
Gusts 17 mph

Oggi
Massima -- | Minima -- °F
--% Possibilità di precip.
Ieri
Massima -- | Minima -- °F
Precip. -- in
6:37 AM 7:20 PM
Gobba a ponente, 93% visible
Pressione 29.97 in
Visibilità 10.0 miglia
Nuvole Sereno
Punto di rugiada 34 °F
Umidità 32%
Piovosità 0.00 in
Spessore del manto nevoso Non disponibile.
Raggi UV 8 fuori da 12
Polline 8.90 fuori da 12
Qualità dell'aria Non disponibile.
Flu Activity Non disponibile.
METAR KBUU 011735Z AUTO 18010G15KT 10SM CLR 18/01 A2997 RMK AO2 T01820012

More Conditions Fewer Conditions

Pressione 29.97 in
Visibilità 10.0 miglia
Nuvole Sereno
Punto di rugiada 34 °F
Umidità 32%
Piovosità 0.00 in
Spessore del manto nevoso Non disponibile.
Raggi UV 8 fuori da 12
Polline 8.90 fuori da 12
Qualità dell'aria Non disponibile.
Flu Activity Non disponibile.
METAR KBUU 011735Z AUTO 18010G15KT 10SM CLR 18/01 A2997 RMK AO2 T01820012

More Conditions Fewer Conditions

10-Day Weather Forecast

Almanac

Astronomia

Apr. 01, 2015 Alba Tramonto
Ora attuale
Crepuscolo civile
Crepuscolo nautico
Crepuscolo astronomico
Luna
Estensione della luce visibile
Lunghezza del giorno
Tomorrow will be .
, % of the Moon is Illuminated

Gli estremi di oggi

State Highs State Lows

Community

WunderPhotos

Upload Photos

1,810,018 foto caricate!

WunderBlogs® & News

Nearby

Qualità dell'aria

  Qualità dell'aria Indice AQ Inquinante
Not available.

Profondità neve

Stazione Profondità Altitudine

Attività sismica

Città  Distanza Mag. Data & Ora
Minimo Magnitudo Mostrato è 2.5.

Temperature delle acque costiere

Località Temperatura

Stations

Stazioni meteo nelle vicinanze

Ubicazione della stazione Temp. Raffreddamento del vento Punto di rugiada Umidità Vento Precip. Alt. Aggiornato Tipo